source: subversion/applications/editors/osm-editor/260605b_osm.gpx @ 29974

Last change on this file since 29974 was 664, checked in by nick, 14 years ago

Changed save/load to always 'OSM' mode; changed example GPX files

File size: 17.9 KB
Line 
1<!-- This data is copyright Nick Whitelegg and licenced under the
2     Creative Commons Licence (Attribution/ShareAlike) v2.0. -->
3<gpx version="1.0" creator="Hogweed Software Freemap::Components class" xmlns="http://www.topografix.com/GPX/1/0">
4<wpt lat="50.9995" lon="-1.33495">
5<name>001</name>
6<type>waypoint</type>
7</wpt>
8<wpt lat="51.0353" lon="-1.31931">
9<name>002</name>
10<type>waypoint</type>
11</wpt>
12<wpt lat="51.0361" lon="-1.30639">
13<name>003</name>
14<type>waypoint</type>
15</wpt>
16<wpt lat="51.0461" lon="-1.30406">
17<name>004</name>
18<type>waypoint</type>
19</wpt>
20<wpt lat="51.0466" lon="-1.3095">
21<name>St Catherine's Hill Mismaze</name>
22<type>point of interest</type>
23</wpt>
24<wpt lat="51.0463" lon="-1.31059">
25<name>St Catherine's Hill</name>
26<type>summit</type>
27</wpt>
28<wpt lat="51.0498" lon="-1.31121">
29<name> </name>
30<type>car park</type>
31</wpt>
32<wpt lat="51.05" lon="-1.31119">
33<name>008</name>
34<type>waypoint</type>
35</wpt>
36<wpt lat="51.056" lon="-1.30885">
37<name>009</name>
38<type>bridge</type>
39</wpt>
40<wpt lat="51.014" lon="-1.32973">
41<name> </name>
42<type>barn</type>
43</wpt>
44<wpt lat="51.0223" lon="-1.32734">
45<name>The Bridge</name>
46<type>pub</type>
47</wpt>
48<wpt lat="50.9692" lon="-1.35024">
49<name>Eastleigh</name>
50<type>station</type>
51</wpt>
52<wpt lat="51.0355" lon="-1.31652">
53<name>Hockley Golf Club</name>
54<type>amenity</type>
55</wpt>
56<wpt lat="51.0222" lon="-1.32787">
57<name>Shawford</name>
58<type>station</type>
59</wpt>
60<wpt lat="51.0221" lon="-1.32651">
61<name>Shawford</name>
62<type>village</type>
63</wpt>
64<trk>
65<name>noname</name>
66<trkseg>
67<trkpt lat="50.9692" lon="-1.35048">
68<time>2005-06-26T13:23:36Z</time>
69</trkpt>
70<trkpt lat="50.9692" lon="-1.35025">
71<time>2005-06-26T13:24:08Z</time>
72</trkpt>
73<trkpt lat="50.9692" lon="-1.3504">
74<time>2005-06-26T13:24:14Z</time>
75</trkpt>
76<trkpt lat="50.9699" lon="-1.35037">
77<time>2005-06-26T13:25:01Z</time>
78</trkpt>
79<extensions>
80<type>track</type>
81<id>0</id>
82</extensions>
83</trkseg>
84<trkseg>
85<trkpt lat="50.9992" lon="-1.33484">
86<time>2005-06-26T14:42:52Z</time>
87</trkpt>
88<trkpt lat="50.9995" lon="-1.33493">
89<time>2005-06-26T14:43:36Z</time>
90</trkpt>
91<extensions>
92<type>minor road</type>
93<id>0</id>
94</extensions>
95</trkseg>
96<trkseg>
97<trkpt lat="50.9995" lon="-1.33493">
98<time>2005-06-26T14:43:36Z</time>
99</trkpt>
100<extensions>
101<type>track</type>
102<id>0</id>
103</extensions>
104</trkseg>
105<trkseg>
106<trkpt lat="51.0221" lon="-1.32651">
107<time>2005-06-26T16:21:29Z</time>
108</trkpt>
109<extensions>
110<type>track</type>
111<id>0</id>
112</extensions>
113</trkseg>
114<trkseg>
115<trkpt lat="51.0221" lon="-1.32651">
116<time>2005-06-26T16:21:29Z</time>
117</trkpt>
118<trkpt lat="51.0221" lon="-1.32628">
119<time>2005-06-26T16:23:13Z</time>
120</trkpt>
121<extensions>
122<type>minor road</type>
123<id>0</id>
124</extensions>
125</trkseg>
126<trkseg>
127<trkpt lat="51.0221" lon="-1.32628">
128<time>2005-06-26T16:23:13Z</time>
129</trkpt>
130<extensions>
131<type>track</type>
132<id>0</id>
133</extensions>
134</trkseg>
135<trkseg>
136<trkpt lat="51.0221" lon="-1.32628">
137<time>2005-06-26T16:23:13Z</time>
138</trkpt>
139<trkpt lat="51.0226" lon="-1.32529">
140<time>2005-06-26T16:24:49Z</time>
141</trkpt>
142<trkpt lat="51.0231" lon="-1.32497">
143<time>2005-06-26T16:25:53Z</time>
144</trkpt>
145<trkpt lat="51.0237" lon="-1.32467">
146<time>2005-06-26T16:27:15Z</time>
147</trkpt>
148<trkpt lat="51.0243" lon="-1.32392">
149<time>2005-06-26T16:28:21Z</time>
150</trkpt>
151<trkpt lat="51.0258" lon="-1.32334">
152<time>2005-06-26T16:31:01Z</time>
153</trkpt>
154<trkpt lat="51.0267" lon="-1.3228">
155<time>2005-06-26T16:32:49Z</time>
156</trkpt>
157<trkpt lat="51.0275" lon="-1.32164">
158<time>2005-06-26T16:38:00Z</time>
159</trkpt>
160<trkpt lat="51.0281" lon="-1.32139">
161<time>2005-06-26T16:38:55Z</time>
162</trkpt>
163<trkpt lat="51.0296" lon="-1.3213">
164<time>2005-06-26T16:41:01Z</time>
165</trkpt>
166<trkpt lat="51.0318" lon="-1.32061">
167<time>2005-06-26T16:44:12Z</time>
168</trkpt>
169<trkpt lat="51.0322" lon="-1.32003">
170<time>2005-06-26T16:45:13Z</time>
171</trkpt>
172<trkpt lat="51.0331" lon="-1.31982">
173<time>2005-06-26T16:47:01Z</time>
174</trkpt>
175<trkpt lat="51.034" lon="-1.32023">
176<time>2005-06-26T16:49:10Z</time>
177</trkpt>
178<trkpt lat="51.0352" lon="-1.31943">
179<time>2005-06-26T16:50:57Z</time>
180</trkpt>
181<trkpt lat="51.0353" lon="-1.31935">
182<time>2005-06-26T16:51:33Z</time>
183</trkpt>
184<extensions>
185<type>footpath</type>
186<id>0</id>
187</extensions>
188</trkseg>
189<trkseg>
190<trkpt lat="51.0353" lon="-1.31935">
191<time>2005-06-26T16:51:33Z</time>
192</trkpt>
193<extensions>
194<type>track</type>
195<id>0</id>
196</extensions>
197</trkseg>
198<trkseg>
199<trkpt lat="51.0353" lon="-1.31935">
200<time>2005-06-26T16:51:33Z</time>
201</trkpt>
202<trkpt lat="51.0353" lon="-1.31935">
203<time>2005-06-26T16:51:58Z</time>
204</trkpt>
205<trkpt lat="51.0363" lon="-1.31722">
206<time>2005-06-26T16:54:28Z</time>
207</trkpt>
208<trkpt lat="51.0363" lon="-1.31686">
209<time>2005-06-26T16:55:05Z</time>
210</trkpt>
211<trkpt lat="51.0353" lon="-1.3166">
212<time>2005-06-26T16:56:21Z</time>
213</trkpt>
214<trkpt lat="51.0351" lon="-1.31611">
215<time>2005-06-26T16:56:58Z</time>
216</trkpt>
217<trkpt lat="51.0351" lon="-1.31609">
218<time>2005-06-26T16:57:00Z</time>
219</trkpt>
220<trkpt lat="51.0351" lon="-1.31463">
221<time>2005-06-26T16:58:06Z</time>
222</trkpt>
223<trkpt lat="51.0352" lon="-1.31409">
224<time>2005-06-26T16:58:49Z</time>
225</trkpt>
226<trkpt lat="51.0354" lon="-1.31372">
227<time>2005-06-26T16:59:14Z</time>
228</trkpt>
229<trkpt lat="51.0355" lon="-1.31252">
230<time>2005-06-26T17:00:23Z</time>
231</trkpt>
232<trkpt lat="51.0354" lon="-1.31134">
233<time>2005-06-26T17:15:48Z</time>
234</trkpt>
235<trkpt lat="51.0355" lon="-1.31031">
236<time>2005-06-26T17:16:30Z</time>
237</trkpt>
238<trkpt lat="51.0363" lon="-1.30763">
239<time>2005-06-26T17:21:43Z</time>
240</trkpt>
241<trkpt lat="51.0363" lon="-1.30712">
242<time>2005-06-26T17:22:33Z</time>
243</trkpt>
244<trkpt lat="51.0361" lon="-1.30688">
245<time>2005-06-26T17:22:54Z</time>
246</trkpt>
247<trkpt lat="51.036" lon="-1.30641">
248<time>2005-06-26T17:23:49Z</time>
249</trkpt>
250<extensions>
251<type>footpath</type>
252<id>0</id>
253</extensions>
254</trkseg>
255<trkseg>
256<trkpt lat="51.036" lon="-1.30641">
257<time>2005-06-26T17:23:49Z</time>
258</trkpt>
259<extensions>
260<type>track</type>
261<id>0</id>
262</extensions>
263</trkseg>
264<trkseg>
265<trkpt lat="51.036" lon="-1.30641">
266<time>2005-06-26T17:23:49Z</time>
267</trkpt>
268<trkpt lat="51.0362" lon="-1.30613">
269<time>2005-06-26T17:24:11Z</time>
270</trkpt>
271<trkpt lat="51.0363" lon="-1.30574">
272<time>2005-06-26T17:24:31Z</time>
273</trkpt>
274<trkpt lat="51.0362" lon="-1.30484">
275<time>2005-06-26T17:25:27Z</time>
276</trkpt>
277<trkpt lat="51.0364" lon="-1.304">
278<time>2005-06-26T17:26:09Z</time>
279</trkpt>
280<trkpt lat="51.0369" lon="-1.29873">
281<time>2005-06-26T17:31:47Z</time>
282</trkpt>
283<trkpt lat="51.0372" lon="-1.29534">
284<time>2005-06-26T17:35:09Z</time>
285</trkpt>
286<trkpt lat="51.0377" lon="-1.29437">
287<time>2005-06-26T17:36:52Z</time>
288</trkpt>
289<extensions>
290<type>byway</type>
291<id>0</id>
292</extensions>
293</trkseg>
294<trkseg>
295<trkpt lat="51.0377" lon="-1.29437">
296<time>2005-06-26T17:36:52Z</time>
297</trkpt>
298<extensions>
299<type>track</type>
300<id>0</id>
301</extensions>
302</trkseg>
303<trkseg>
304<trkpt lat="51.0377" lon="-1.29437">
305<time>2005-06-26T17:36:52Z</time>
306</trkpt>
307<trkpt lat="51.0461" lon="-1.30272">
308<time>2005-06-26T18:29:30Z</time>
309</trkpt>
310<trkpt lat="51.0463" lon="-1.3027">
311<time>2005-06-26T18:29:58Z</time>
312</trkpt>
313<extensions>
314<type>bridleway</type>
315<id>0</id>
316</extensions>
317</trkseg>
318<trkseg>
319<trkpt lat="51.0463" lon="-1.3027">
320<time>2005-06-26T18:29:58Z</time>
321</trkpt>
322<extensions>
323<type>track</type>
324<id>0</id>
325</extensions>
326</trkseg>
327<trkseg>
328<trkpt lat="51.0463" lon="-1.3027">
329<time>2005-06-26T18:29:58Z</time>
330</trkpt>
331<trkpt lat="51.0461" lon="-1.30407">
332<time>2005-06-26T18:33:00Z</time>
333</trkpt>
334<trkpt lat="51.0454" lon="-1.30557">
335<time>2005-06-26T18:35:11Z</time>
336</trkpt>
337<trkpt lat="51.0442" lon="-1.30707">
338<time>2005-06-26T18:37:55Z</time>
339</trkpt>
340<extensions>
341<type>bridleway</type>
342<id>0</id>
343</extensions>
344</trkseg>
345<trkseg>
346<trkpt lat="51.0442" lon="-1.30707">
347<time>2005-06-26T18:37:55Z</time>
348</trkpt>
349<extensions>
350<type>track</type>
351<id>0</id>
352</extensions>
353</trkseg>
354<trkseg>
355<trkpt lat="51.0442" lon="-1.30707">
356<time>2005-06-26T18:37:55Z</time>
357</trkpt>
358<trkpt lat="51.0444" lon="-1.30782">
359<time>2005-06-26T18:40:34Z</time>
360</trkpt>
361<trkpt lat="51.0452" lon="-1.30898">
362<time>2005-06-26T18:42:27Z</time>
363</trkpt>
364<trkpt lat="51.0458" lon="-1.30868">
365<time>2005-06-26T18:43:32Z</time>
366</trkpt>
367<trkpt lat="51.0462" lon="-1.30838">
368<time>2005-06-26T18:44:01Z</time>
369</trkpt>
370<trkpt lat="51.047" lon="-1.30853">
371<time>2005-06-26T19:08:45Z</time>
372</trkpt>
373<trkpt lat="51.0475" lon="-1.30905">
374<time>2005-06-26T19:09:32Z</time>
375</trkpt>
376<trkpt lat="51.0478" lon="-1.3092">
377<time>2005-06-26T19:10:46Z</time>
378</trkpt>
379<trkpt lat="51.0485" lon="-1.30888">
380<time>2005-06-26T19:11:34Z</time>
381</trkpt>
382<trkpt lat="51.0487" lon="-1.30903">
383<time>2005-06-26T19:11:59Z</time>
384</trkpt>
385<trkpt lat="51.0488" lon="-1.31089">
386<time>2005-06-26T19:13:22Z</time>
387</trkpt>
388<trkpt lat="51.0488" lon="-1.31089">
389<time>2005-06-26T19:13:33Z</time>
390</trkpt>
391<trkpt lat="51.049" lon="-1.31113">
392<time>2005-06-26T19:13:55Z</time>
393</trkpt>
394<trkpt lat="51.0491" lon="-1.31102">
395<time>2005-06-26T19:14:16Z</time>
396</trkpt>
397<trkpt lat="51.0493" lon="-1.31098">
398<time>2005-06-26T19:14:42Z</time>
399</trkpt>
400<trkpt lat="51.0498" lon="-1.31145">
401<time>2005-06-26T19:15:21Z</time>
402</trkpt>
403<extensions>
404<type>footpath</type>
405<id>0</id>
406</extensions>
407</trkseg>
408<trkseg>
409<trkpt lat="51.0498" lon="-1.31145">
410<time>2005-06-26T19:15:21Z</time>
411</trkpt>
412<trkpt lat="51.0499" lon="-1.31113">
413<time>2005-06-26T19:15:43Z</time>
414</trkpt>
415<trkpt lat="51.05" lon="-1.31119">
416<time>2005-06-26T19:16:08Z</time>
417</trkpt>
418<trkpt lat="51.05" lon="-1.31119">
419<time>2005-06-26T19:16:38Z</time>
420</trkpt>
421<trkpt lat="51.0501" lon="-1.31145">
422<time>2005-06-26T19:17:00Z</time>
423</trkpt>
424<extensions>
425<type>track</type>
426<id>0</id>
427</extensions>
428</trkseg>
429<trkseg>
430<trkpt lat="51.0501" lon="-1.31145">
431<time>2005-06-26T19:17:00Z</time>
432</trkpt>
433<trkpt lat="51.0501" lon="-1.31145">
434<time>2005-06-26T19:17:01Z</time>
435</trkpt>
436<trkpt lat="51.051" lon="-1.31094">
437<time>2005-06-26T19:18:04Z</time>
438</trkpt>
439<trkpt lat="51.0527" lon="-1.31059">
440<time>2005-06-26T19:19:59Z</time>
441</trkpt>
442<trkpt lat="51.053" lon="-1.31074">
443<time>2005-06-26T19:20:18Z</time>
444</trkpt>
445<trkpt lat="51.0532" lon="-1.31057">
446<time>2005-06-26T19:20:41Z</time>
447</trkpt>
448<trkpt lat="51.0537" lon="-1.30954">
449<time>2005-06-26T19:21:27Z</time>
450</trkpt>
451<trkpt lat="51.0547" lon="-1.30838">
452<time>2005-06-26T19:23:05Z</time>
453</trkpt>
454<trkpt lat="51.0549" lon="-1.3083">
455<time>2005-06-26T19:23:23Z</time>
456</trkpt>
457<trkpt lat="51.0555" lon="-1.30858">
458<time>2005-06-26T19:24:04Z</time>
459</trkpt>
460<trkpt lat="51.0557" lon="-1.30881">
461<time>2005-06-26T19:24:25Z</time>
462</trkpt>
463<trkpt lat="51.0561" lon="-1.30892">
464<time>2005-06-26T19:25:01Z</time>
465</trkpt>
466<trkpt lat="51.0561" lon="-1.30864">
467<time>2005-06-26T19:25:45Z</time>
468</trkpt>
469<trkpt lat="51.0562" lon="-1.30842">
470<time>2005-06-26T19:26:02Z</time>
471</trkpt>
472<extensions>
473<type>footpath</type>
474<id>0</id>
475</extensions>
476</trkseg>
477<trkseg>
478<trkpt lat="51.0562" lon="-1.30842">
479<time>2005-06-26T19:26:02Z</time>
480</trkpt>
481<trkpt lat="51.0566" lon="-1.3084">
482<time>2005-06-26T19:26:25Z</time>
483</trkpt>
484<trkpt lat="51.0567" lon="-1.30858">
485<time>2005-06-26T19:26:37Z</time>
486</trkpt>
487<trkpt lat="51.0569" lon="-1.31044">
488<time>2005-06-26T19:27:51Z</time>
489</trkpt>
490<trkpt lat="51.057" lon="-1.31098">
491<time>2005-06-26T19:28:08Z</time>
492</trkpt>
493<trkpt lat="51.0579" lon="-1.31096">
494<time>2005-06-26T19:29:02Z</time>
495</trkpt>
496<trkpt lat="51.0582" lon="-1.31102">
497<time>2005-06-26T19:29:20Z</time>
498</trkpt>
499<trkpt lat="51.0583" lon="-1.31169">
500<time>2005-06-26T19:29:42Z</time>
501</trkpt>
502<trkpt lat="51.0588" lon="-1.31252">
503<time>2005-06-26T19:29:53Z</time>
504</trkpt>
505<trkpt lat="51.0591" lon="-1.3136">
506<time>2005-06-26T19:30:35Z</time>
507</trkpt>
508<trkpt lat="51.0595" lon="-1.31441">
509<time>2005-06-26T19:31:12Z</time>
510</trkpt>
511<trkpt lat="51.0596" lon="-1.31486">
512<time>2005-06-26T19:31:42Z</time>
513</trkpt>
514<trkpt lat="51.0596" lon="-1.3148">
515<time>2005-06-26T19:31:48Z</time>
516</trkpt>
517<trkpt lat="51.0596" lon="-1.3148">
518<time>2005-06-26T19:31:52Z</time>
519</trkpt>
520<trkpt lat="51.0601" lon="-1.31628">
521<time>2005-06-26T19:33:16Z</time>
522</trkpt>
523<trkpt lat="51.0623" lon="-1.31609">
524<time>2005-06-26T19:35:22Z</time>
525</trkpt>
526<extensions>
527<type>track</type>
528<id>0</id>
529</extensions>
530</trkseg>
531<trkseg>
532<trkpt lat="50.9699" lon="-1.35037">
533<time>2005-06-26T13:25:01Z</time>
534</trkpt>
535<trkpt lat="50.9701" lon="-1.35014">
536<time>2005-06-26T13:25:15Z</time>
537</trkpt>
538<trkpt lat="50.97" lon="-1.34924">
539<time>2005-06-26T13:25:53Z</time>
540</trkpt>
541<trkpt lat="50.9702" lon="-1.34645">
542<time>2005-06-26T13:27:42Z</time>
543</trkpt>
544<trkpt lat="50.9702" lon="-1.34402">
545<time>2005-06-26T13:31:38Z</time>
546</trkpt>
547<trkpt lat="50.9701" lon="-1.34027">
548<time>2005-06-26T13:34:23Z</time>
549</trkpt>
550<extensions>
551<type>B road</type>
552<id>0</id>
553</extensions>
554</trkseg>
555<trkseg>
556<trkpt lat="50.9701" lon="-1.34027">
557<time>2005-06-26T13:34:23Z</time>
558</trkpt>
559<extensions>
560<type>track</type>
561<id>0</id>
562</extensions>
563</trkseg>
564<trkseg>
565<trkpt lat="50.9701" lon="-1.34027">
566<time>2005-06-26T13:34:23Z</time>
567</trkpt>
568<trkpt lat="50.9705" lon="-1.34042">
569<time>2005-06-26T13:39:09Z</time>
570</trkpt>
571<trkpt lat="50.9711" lon="-1.34025">
572<time>2005-06-26T13:43:07Z</time>
573</trkpt>
574<trkpt lat="50.9728" lon="-1.34055">
575<time>2005-06-26T13:45:40Z</time>
576</trkpt>
577<trkpt lat="50.973" lon="-1.34048">
578<time>2005-06-26T13:46:01Z</time>
579</trkpt>
580<trkpt lat="50.9737" lon="-1.34074">
581<time>2005-06-26T13:47:01Z</time>
582</trkpt>
583<trkpt lat="50.9746" lon="-1.34201">
584<time>2005-06-26T13:48:28Z</time>
585</trkpt>
586<trkpt lat="50.9749" lon="-1.34229">
587<time>2005-06-26T13:49:05Z</time>
588</trkpt>
589<trkpt lat="50.9758" lon="-1.34246">
590<time>2005-06-26T13:50:14Z</time>
591</trkpt>
592<trkpt lat="50.9764" lon="-1.34216">
593<time>2005-06-26T13:50:58Z</time>
594</trkpt>
595<trkpt lat="50.9772" lon="-1.34192">
596<time>2005-06-26T13:52:00Z</time>
597</trkpt>
598<trkpt lat="50.9775" lon="-1.34209">
599<time>2005-06-26T13:52:15Z</time>
600</trkpt>
601<trkpt lat="50.9778" lon="-1.34259">
602<time>2005-06-26T13:53:27Z</time>
603</trkpt>
604<trkpt lat="50.9783" lon="-1.34203">
605<time>2005-06-26T13:54:05Z</time>
606</trkpt>
607<trkpt lat="50.9785" lon="-1.3422">
608<time>2005-06-26T13:54:26Z</time>
609</trkpt>
610<trkpt lat="50.979" lon="-1.34284">
611<time>2005-06-26T13:55:11Z</time>
612</trkpt>
613<trkpt lat="50.9797" lon="-1.34473">
614<time>2005-06-26T14:01:23Z</time>
615</trkpt>
616<trkpt lat="50.98" lon="-1.34495">
617<time>2005-06-26T14:02:24Z</time>
618</trkpt>
619<trkpt lat="50.9822" lon="-1.34752">
620<time>2005-06-26T14:09:24Z</time>
621</trkpt>
622<trkpt lat="50.9828" lon="-1.34896">
623<time>2005-06-26T14:10:32Z</time>
624</trkpt>
625<trkpt lat="50.9837" lon="-1.34995">
626<time>2005-06-26T14:11:52Z</time>
627</trkpt>
628<trkpt lat="50.9842" lon="-1.35005">
629<time>2005-06-26T14:12:26Z</time>
630</trkpt>
631<trkpt lat="50.9855" lon="-1.3496">
632<time>2005-06-26T14:14:18Z</time>
633</trkpt>
634<trkpt lat="50.9861" lon="-1.34887">
635<time>2005-06-26T14:15:35Z</time>
636</trkpt>
637<trkpt lat="50.9869" lon="-1.34784">
638<time>2005-06-26T14:16:58Z</time>
639</trkpt>
640<trkpt lat="50.9869" lon="-1.34748">
641<time>2005-06-26T14:17:17Z</time>
642</trkpt>
643<trkpt lat="50.9868" lon="-1.34671">
644<time>2005-06-26T14:18:09Z</time>
645</trkpt>
646<trkpt lat="50.9867" lon="-1.34587">
647<time>2005-06-26T14:19:08Z</time>
648</trkpt>
649<trkpt lat="50.9868" lon="-1.34441">
650<time>2005-06-26T14:20:41Z</time>
651</trkpt>
652<trkpt lat="50.9878" lon="-1.344">
653<time>2005-06-26T14:22:39Z</time>
654</trkpt>
655<trkpt lat="50.9886" lon="-1.34314">
656<time>2005-06-26T14:24:17Z</time>
657</trkpt>
658<trkpt lat="50.9938" lon="-1.34023">
659<time>2005-06-26T14:31:38Z</time>
660</trkpt>
661<trkpt lat="50.9971" lon="-1.33615">
662<time>2005-06-26T14:38:49Z</time>
663</trkpt>
664<trkpt lat="50.9979" lon="-1.33591">
665<time>2005-06-26T14:40:23Z</time>
666</trkpt>
667<trkpt lat="50.9984" lon="-1.33523">
668<time>2005-06-26T14:41:29Z</time>
669</trkpt>
670<trkpt lat="50.9992" lon="-1.33484">
671<time>2005-06-26T14:42:52Z</time>
672</trkpt>
673<extensions>
674<type>footpath</type>
675<id>0</id>
676</extensions>
677</trkseg>
678<trkseg>
679<trkpt lat="50.9992" lon="-1.33484">
680<time>2005-06-26T14:42:52Z</time>
681</trkpt>
682<extensions>
683<type>track</type>
684<id>0</id>
685</extensions>
686</trkseg>
687<trkseg>
688<trkpt lat="50.9995" lon="-1.33493">
689<time>2005-06-26T14:43:36Z</time>
690</trkpt>
691<trkpt lat="51.0002" lon="-1.33465">
692<time>2005-06-26T14:44:55Z</time>
693</trkpt>
694<trkpt lat="51.0007" lon="-1.33422">
695<time>2005-06-26T14:45:50Z</time>
696</trkpt>
697<trkpt lat="51.0012" lon="-1.33411">
698<time>2005-06-26T14:46:37Z</time>
699</trkpt>
700<trkpt lat="51.0023" lon="-1.33278">
701<time>2005-06-26T14:49:14Z</time>
702</trkpt>
703<trkpt lat="51.0025" lon="-1.33143">
704<time>2005-06-26T14:50:56Z</time>
705</trkpt>
706<trkpt lat="51.0026" lon="-1.33117">
707<time>2005-06-26T14:51:22Z</time>
708</trkpt>
709<trkpt lat="51.0046" lon="-1.329">
710<time>2005-06-26T15:03:43Z</time>
711</trkpt>
712<trkpt lat="51.0054" lon="-1.32997">
713<time>2005-06-26T15:05:27Z</time>
714</trkpt>
715<trkpt lat="51.0061" lon="-1.33005">
716<time>2005-06-26T15:06:34Z</time>
717</trkpt>
718<trkpt lat="51.0066" lon="-1.33085">
719<time>2005-06-26T15:07:35Z</time>
720</trkpt>
721<trkpt lat="51.0075" lon="-1.33128">
722<time>2005-06-26T15:08:46Z</time>
723</trkpt>
724<trkpt lat="51.0082" lon="-1.33102">
725<time>2005-06-26T15:10:07Z</time>
726</trkpt>
727<trkpt lat="51.0102" lon="-1.3299">
728<time>2005-06-26T15:19:37Z</time>
729</trkpt>
730<trkpt lat="51.0106" lon="-1.32956">
731<time>2005-06-26T15:20:05Z</time>
732</trkpt>
733<trkpt lat="51.0115" lon="-1.32898">
734<time>2005-06-26T15:21:33Z</time>
735</trkpt>
736<trkpt lat="51.0116" lon="-1.32939">
737<time>2005-06-26T15:22:11Z</time>
738</trkpt>
739<trkpt lat="51.0128" lon="-1.32928">
740<time>2005-06-26T15:23:51Z</time>
741</trkpt>
742<trkpt lat="51.0132" lon="-1.32905">
743<time>2005-06-26T15:24:31Z</time>
744</trkpt>
745<trkpt lat="51.0138" lon="-1.32907">
746<time>2005-06-26T15:25:35Z</time>
747</trkpt>
748<trkpt lat="51.0139" lon="-1.3292">
749<time>2005-06-26T15:27:25Z</time>
750</trkpt>
751<trkpt lat="51.014" lon="-1.32939">
752<time>2005-06-26T15:27:41Z</time>
753</trkpt>
754<trkpt lat="51.0176" lon="-1.32928">
755<time>2005-06-26T15:35:58Z</time>
756</trkpt>
757<trkpt lat="51.019" lon="-1.32868">
758<time>2005-06-26T15:37:54Z</time>
759</trkpt>
760<trkpt lat="51.0207" lon="-1.32731">
761<time>2005-06-26T15:41:10Z</time>
762</trkpt>
763<trkpt lat="51.0211" lon="-1.32729">
764<time>2005-06-26T15:41:30Z</time>
765</trkpt>
766<trkpt lat="51.0221" lon="-1.32651">
767<time>2005-06-26T16:21:29Z</time>
768</trkpt>
769<extensions>
770<type>footpath</type>
771<id>0</id>
772</extensions>
773</trkseg>
774</trk>
775</gpx>
Note: See TracBrowser for help on using the repository browser.